Lester Prairie, MN

7:54 AM CST on December 29, 2014 (GMT -0600)
Winsted Township | Change Station
CLOSE
Current Station
Personal Weather Station
Location: Winsted, MN
Elevation: 1027 ft
Nearby Weather Stations
Active Advisory: Wind Chill Advisory

Elev 1027 ft 44.96 °N, 94.07 °W | Updated 14 minutes ago

Partly Cloudy
Partly Cloudy
-0.9 °F
Feels Like -1 °F
N
0.0
Wind Variable Wind from NNW

Today
High -- | Low -- °F
--% Chance of Precip.
Yesterday
High -- | Low -- °F
Precip. -- in
7:53 AM 4:43 PM
First Quarter, 59% visible
Pressure 30.50 in
Visibility 10.0 miles
Clouds Clear
Windchill -1 °F
Dew Point -5 °F
Humidity 83%
Rainfall 0.00 in
Snow Depth Not available.
UV 0 out of 12
Pollen .10 out of 12
Air Quality Not available.
Flu Activity Not available.
METAR KGYL 291334Z AUTO 35005KT 10SM CLR M16/M19 A3050 RMK AO2 T11641188

More Conditions Fewer Conditions

Pressure 30.50 in
Visibility 10.0 miles
Clouds Clear
Windchill -1 °F
Dew Point -5 °F
Humidity 83%
Rainfall 0.00 in
Snow Depth Not available.
UV 0 out of 12
Pollen .10 out of 12
Air Quality Not available.
Flu Activity Not available.
METAR KGYL 291334Z AUTO 35005KT 10SM CLR M16/M19 A3050 RMK AO2 T11641188

More Conditions Fewer Conditions

10-Day Weather Forecast

Almanac

Astronomy

Dec. 29, 2014 Rise Set
Actual Time
Civil Twilight
Nautical Twilight
Astronomical Twilight
Moon
Length of Visible Light
Length of Day
Tomorrow will be .
, % of the Moon is Illuminated

Today's Extremes

State Highs State Lows

Community

WunderPhotos

Upload Photos

1,781,586 photos uploaded!

WunderBlogs® & News

Nearby

Air Quality

  Air Quality AQ Index Pollutant
Not available.

Snow Depth

Station Depth Elevation

Earthquake Activity

City Distance Mag. Time & Date
Minimum magnitude displayed is 2.5.

Coastal Water Temperatures

Place Temperature

Nearby Weather Stations